createdAt,value
2018-09-09T00:00:19.398Z,1011.28
2018-09-09T00:01:19.382Z,1011.26
2018-09-09T00:02:19.374Z,1011.25
2018-09-09T00:03:19.359Z,1011.28
2018-09-09T00:04:19.345Z,1011.32
2018-09-09T00:05:19.330Z,1011.37
2018-09-09T00:06:19.321Z,1011.38
2018-09-09T00:07:19.306Z,1011.39
2018-09-09T00:08:19.291Z,1011.47
2018-09-09T00:09:19.339Z,1011.47
2018-09-09T00:10:19.269Z,1011.47
2018-09-09T00:11:19.251Z,1011.41
2018-09-09T00:12:19.240Z,1011.46
2018-09-09T00:13:19.227Z,1011.43
2018-09-09T00:14:19.213Z,1011.4
2018-09-09T00:15:19.200Z,1011.38
2018-09-09T00:16:19.187Z,1011.34
2018-09-09T00:17:19.172Z,1011.34
2018-09-09T00:18:19.162Z,1011.31
2018-09-09T00:19:19.148Z,1011.3
2018-09-09T00:20:19.133Z,1011.35
2018-09-09T00:21:19.122Z,1011.39
2018-09-09T00:22:19.107Z,1011.39
2018-09-09T00:23:19.095Z,1011.4
2018-09-09T00:24:19.081Z,1011.33
2018-09-09T00:25:19.070Z,1011.29
2018-09-09T00:26:19.057Z,1011.31
2018-09-09T00:27:19.043Z,1011.3
2018-09-09T00:28:19.028Z,1011.32
2018-09-09T00:29:19.016Z,1011.34
2018-09-09T00:30:19.209Z,1011.36
2018-09-09T00:31:18.994Z,1011.34
2018-09-09T00:32:18.977Z,1011.31
2018-09-09T00:33:18.965Z,1011.27
2018-09-09T00:34:18.952Z,1011.31
2018-09-09T00:35:18.938Z,1011.3
2018-09-09T00:36:18.926Z,1011.34
2018-09-09T00:37:18.913Z,1011.33
2018-09-09T00:38:18.899Z,1011.32
2018-09-09T00:39:18.884Z,1011.3
2018-09-09T00:40:18.872Z,1011.29
2018-09-09T00:41:18.862Z,1011.25
2018-09-09T00:42:18.847Z,1011.26
2018-09-09T00:43:18.832Z,1011.24
2018-09-09T00:44:18.848Z,1011.26
2018-09-09T00:45:18.809Z,1011.22
2018-09-09T00:46:18.795Z,1011.26
2018-09-09T00:47:18.780Z,1011.26
2018-09-09T00:48:18.770Z,1011.26
2018-09-09T00:49:18.754Z,1011.28
2018-09-09T00:50:18.743Z,1011.28
2018-09-09T00:51:18.726Z,1011.24
2018-09-09T00:52:18.717Z,1011.18
2018-09-09T00:53:18.705Z,1011.2
2018-09-09T00:54:18.688Z,1011.15
2018-09-09T00:55:18.674Z,1011.14
2018-09-09T00:56:18.661Z,1011.17
2018-09-09T00:57:18.647Z,1011.17
2018-09-09T00:58:18.635Z,1011.22
2018-09-09T00:59:18.625Z,1011.26
2018-09-09T01:00:18.658Z,1011.29
2018-09-09T01:01:18.594Z,1011.29
2018-09-09T01:02:18.584Z,1011.26
2018-09-09T01:03:18.568Z,1011.27
2018-09-09T01:04:18.556Z,1011.26
2018-09-09T01:05:18.544Z,1011.21
2018-09-09T01:06:18.529Z,1011.25
2018-09-09T01:07:18.519Z,1011.22
2018-09-09T01:08:18.509Z,1011.28
2018-09-09T01:09:18.494Z,1011.26
2018-09-09T01:10:18.476Z,1011.26
2018-09-09T01:11:18.467Z,1011.26
2018-09-09T01:12:18.450Z,1011.27
2018-09-09T01:13:18.440Z,1011.28
2018-09-09T01:14:18.423Z,1011.25
2018-09-09T01:15:18.412Z,1011.29
2018-09-09T01:16:18.398Z,1011.28
2018-09-09T01:17:18.383Z,1011.28
2018-09-09T01:18:18.373Z,1011.29
2018-09-09T01:19:18.360Z,1011.28
2018-09-09T01:20:18.345Z,1011.28
2018-09-09T01:21:18.332Z,1011.3
2018-09-09T01:22:18.320Z,1011.3
2018-09-09T01:23:18.303Z,1011.31
2018-09-09T01:24:18.294Z,1011.3
2018-09-09T01:25:18.278Z,1011.32
2018-09-09T01:26:18.264Z,1011.35
2018-09-09T01:27:18.256Z,1011.29
2018-09-09T01:28:18.241Z,1011.31
2018-09-09T01:29:18.228Z,1011.26
2018-09-09T01:30:18.213Z,1011.3
2018-09-09T01:31:18.198Z,1011.25
2018-09-09T01:32:18.187Z,1011.27
2018-09-09T01:33:18.175Z,1011.25
2018-09-09T01:34:18.161Z,1011.24
2018-09-09T01:35:18.148Z,1011.23
2018-09-09T01:36:18.133Z,1011.3
2018-09-09T01:37:18.120Z,1011.29
2018-09-09T01:38:18.111Z,1011.32
2018-09-09T01:39:18.093Z,1011.29
2018-09-09T01:40:18.082Z,1011.31
2018-09-09T01:41:18.069Z,1011.24
2018-09-09T01:42:18.056Z,1011.29
2018-09-09T01:43:18.041Z,1011.29
2018-09-09T01:44:18.029Z,1011.29
2018-09-09T01:45:18.015Z,1011.23
2018-09-09T01:46:18.002Z,1011.25
2018-09-09T01:47:17.989Z,1011.22
2018-09-09T01:48:17.975Z,1011.26
2018-09-09T01:49:17.963Z,1011.2
2018-09-09T01:50:17.950Z,1011.21
2018-09-09T01:51:17.937Z,1011.18
2018-09-09T01:52:17.924Z,1011.2
2018-09-09T01:53:17.912Z,1011.15
2018-09-09T01:54:17.897Z,1011.14
2018-09-09T01:55:17.883Z,1011.13
2018-09-09T01:56:17.870Z,1011.1
2018-09-09T01:57:17.859Z,1011.12
2018-09-09T01:58:17.845Z,1011.11
2018-09-09T01:59:17.831Z,1011.12
2018-09-09T02:00:17.819Z,1011.1
2018-09-09T02:01:17.804Z,1011.14
2018-09-09T02:02:17.793Z,1011.15
2018-09-09T02:03:17.779Z,1011.19
2018-09-09T02:04:17.766Z,1011.17
2018-09-09T02:05:17.752Z,1011.2
2018-09-09T02:06:17.741Z,1011.15
2018-09-09T02:07:17.726Z,1011.18
2018-09-09T02:08:17.716Z,1011.19
2018-09-09T02:09:17.699Z,1011.23
2018-09-09T02:10:17.687Z,1011.25
2018-09-09T02:11:17.674Z,1011.26
2018-09-09T02:12:17.664Z,1011.22
2018-09-09T02:13:17.650Z,1011.22
2018-09-09T02:14:17.635Z,1011.23
2018-09-09T02:15:17.620Z,1011.22
2018-09-09T02:16:17.615Z,1011.27
2018-09-09T02:17:17.594Z,1011.24
2018-09-09T02:18:17.586Z,1011.21
2018-09-09T02:19:17.569Z,1011.25
2018-09-09T02:20:17.555Z,1011.22
2018-09-09T02:21:17.545Z,1011.24
2018-09-09T02:22:17.529Z,1011.19
2018-09-09T02:23:17.515Z,1011.26
2018-09-09T02:24:17.503Z,1011.33
2018-09-09T02:25:17.488Z,1011.32
2018-09-09T02:26:17.477Z,1011.34
2018-09-09T02:27:17.464Z,1011.41
2018-09-09T02:28:17.449Z,1011.44
2018-09-09T02:29:17.436Z,1011.45
2018-09-09T02:30:17.626Z,1011.39
2018-09-09T02:31:17.410Z,1011.42
2018-09-09T02:32:17.396Z,1011.4
2018-09-09T02:33:17.382Z,1011.37
2018-09-09T02:34:17.374Z,1011.33
2018-09-09T02:35:17.356Z,1011.32
2018-09-09T02:36:17.343Z,1011.36
2018-09-09T02:37:17.330Z,1011.36
2018-09-09T02:38:17.316Z,1011.38
2018-09-09T02:39:17.304Z,1011.33
2018-09-09T02:40:17.299Z,1011.37
2018-09-09T02:41:17.280Z,1011.34
2018-09-09T02:42:17.266Z,1011.3
2018-09-09T02:43:17.257Z,1011.27
2018-09-09T02:44:17.239Z,1011.27
2018-09-09T02:45:17.225Z,1011.25
2018-09-09T02:46:17.211Z,1011.24
2018-09-09T02:47:17.208Z,1011.22
2018-09-09T02:48:17.184Z,1011.24
2018-09-09T02:49:17.172Z,1011.23
2018-09-09T02:50:17.192Z,1011.24
2018-09-09T02:51:17.147Z,1011.26
2018-09-09T02:52:17.132Z,1011.26
2018-09-09T02:53:17.118Z,1011.31
2018-09-09T02:54:17.108Z,1011.27
2018-09-09T02:55:17.095Z,1011.27
2018-09-09T02:56:17.079Z,1011.33
2018-09-09T02:57:17.065Z,1011.28
2018-09-09T02:58:17.060Z,1011.25
2018-09-09T02:59:17.040Z,1011.25
2018-09-09T03:00:17.028Z,1011.25
2018-09-09T03:01:17.012Z,1011.26
2018-09-09T03:02:17.001Z,1011.27
2018-09-09T03:03:16.992Z,1011.27
2018-09-09T03:04:16.974Z,1011.3
2018-09-09T03:05:16.960Z,1011.31
2018-09-09T03:06:16.948Z,1011.33
2018-09-09T03:07:16.932Z,1011.38
2018-09-09T03:08:16.925Z,1011.4
2018-09-09T03:09:16.907Z,1011.4
2018-09-09T03:10:16.893Z,1011.38
2018-09-09T03:11:16.885Z,1011.41
2018-09-09T03:12:16.868Z,1011.45
2018-09-09T03:13:16.854Z,1011.44
2018-09-09T03:14:16.843Z,1011.47
2018-09-09T03:15:16.829Z,1011.45
2018-09-09T03:16:16.820Z,1011.42
2018-09-09T03:17:16.804Z,1011.38
2018-09-09T03:18:16.789Z,1011.38
2018-09-09T03:19:16.776Z,1011.38
2018-09-09T03:20:16.762Z,1011.42
2018-09-09T03:21:16.751Z,1011.38
2018-09-09T03:22:16.734Z,1011.38
2018-09-09T03:23:16.726Z,1011.4
2018-09-09T03:24:16.714Z,1011.37
2018-09-09T03:25:16.694Z,1011.29
2018-09-09T03:26:16.683Z,1011.27
2018-09-09T03:27:16.670Z,1011.21
2018-09-09T03:28:16.662Z,1011.17
2018-09-09T03:29:16.644Z,1011.14
2018-09-09T03:30:16.634Z,1011.08
2018-09-09T03:31:16.630Z,1011.07
2018-09-09T03:32:16.605Z,1011.05
2018-09-09T03:33:16.603Z,1011.02
2018-09-09T03:34:16.577Z,1011.01
2018-09-09T03:35:16.566Z,1010.92
2018-09-09T03:36:16.562Z,1010.88
2018-09-09T03:37:16.538Z,1010.92
2018-09-09T03:38:16.525Z,1010.94
2018-09-09T03:39:16.512Z,1011.03
2018-09-09T03:40:16.500Z,1011.07
2018-09-09T03:41:16.490Z,1011.07
2018-09-09T03:42:16.473Z,1011.07
2018-09-09T03:43:16.460Z,1011.02
2018-09-09T03:44:16.447Z,1011
2018-09-09T03:45:16.436Z,1011.05
2018-09-09T03:46:16.420Z,1011.15
2018-09-09T03:47:16.416Z,1011.16
2018-09-09T03:48:16.392Z,1011.15
2018-09-09T03:49:16.380Z,1011.21
2018-09-09T03:50:16.367Z,1011.2
2018-09-09T03:51:16.354Z,1011.19
2018-09-09T03:52:16.358Z,1011.21
2018-09-09T03:53:16.332Z,1011.21
2018-09-09T03:54:16.314Z,1011.21
2018-09-09T03:55:16.307Z,1011.21
2018-09-09T03:56:16.292Z,1011.21
2018-09-09T03:57:16.287Z,1011.21
2018-09-09T03:58:16.261Z,1011.24
2018-09-09T03:59:16.249Z,1011.23
2018-09-09T04:00:16.240Z,1011.21
2018-09-09T04:01:16.221Z,1011.22
2018-09-09T04:02:16.212Z,1011.22
2018-09-09T04:03:16.197Z,1011.22
2018-09-09T04:04:16.182Z,1011.23
2018-09-09T04:05:16.167Z,1011.25
2018-09-09T04:06:16.155Z,1011.25
2018-09-09T04:07:16.141Z,1011.24
2018-09-09T04:08:16.128Z,1011.25
2018-09-09T04:09:16.114Z,1011.24
2018-09-09T04:10:16.100Z,1011.24
2018-09-09T04:11:16.090Z,1011.25
2018-09-09T04:12:16.075Z,1011.27
2018-09-09T04:13:16.061Z,1011.29
2018-09-09T04:14:16.048Z,1011.26
2018-09-09T04:15:16.033Z,1011.27
2018-09-09T04:16:16.021Z,1011.29
2018-09-09T04:17:16.008Z,1011.22
2018-09-09T04:18:15.993Z,1011.3
2018-09-09T04:19:15.982Z,1011.26
2018-09-09T04:20:15.976Z,1011.3
2018-09-09T04:21:15.954Z,1011.29
2018-09-09T04:22:15.948Z,1011.28
2018-09-09T04:23:15.929Z,1011.32
2018-09-09T04:24:15.914Z,1011.33
2018-09-09T04:25:15.900Z,1011.3
2018-09-09T04:26:15.887Z,1011.33
2018-09-09T04:27:15.881Z,1011.4
2018-09-09T04:28:15.860Z,1011.35
2018-09-09T04:29:15.844Z,1011.37
2018-09-09T04:30:15.833Z,1011.35
2018-09-09T04:31:15.818Z,1011.38
2018-09-09T04:32:15.806Z,1011.34
2018-09-09T04:33:15.795Z,1011.33
2018-09-09T04:34:15.778Z,1011.4
2018-09-09T04:35:15.769Z,1011.39
2018-09-09T04:36:15.754Z,1011.34
2018-09-09T04:37:15.745Z,1011.38
2018-09-09T04:38:15.725Z,1011.41
2018-09-09T04:39:15.713Z,1011.42
2018-09-09T04:40:15.698Z,1011.42
2018-09-09T04:41:15.686Z,1011.42
2018-09-09T04:42:15.672Z,1011.39
2018-09-09T04:43:15.662Z,1011.38
2018-09-09T04:44:15.645Z,1011.36
2018-09-09T04:45:15.631Z,1011.36
2018-09-09T04:46:15.701Z,1011.38
2018-09-09T04:47:15.607Z,1011.4
2018-09-09T04:48:15.590Z,1011.4
2018-09-09T04:49:15.576Z,1011.42
2018-09-09T04:50:15.564Z,1011.44
2018-09-09T04:51:15.550Z,1011.41
2018-09-09T04:52:15.535Z,1011.45
2018-09-09T04:53:15.525Z,1011.41
2018-09-09T04:54:15.510Z,1011.42
2018-09-09T04:55:15.495Z,1011.45
2018-09-09T04:56:15.482Z,1011.44
2018-09-09T04:57:15.465Z,1011.49
2018-09-09T04:58:15.455Z,1011.51
2018-09-09T04:59:15.442Z,1011.48
2018-09-09T05:00:15.428Z,1011.48
2018-09-09T05:01:15.429Z,1011.52
2018-09-09T05:02:15.400Z,1011.49
2018-09-09T05:03:15.387Z,1011.5
2018-09-09T05:04:15.378Z,1011.49
2018-09-09T05:05:15.359Z,1011.45
2018-09-09T05:06:15.346Z,1011.42
2018-09-09T05:07:15.347Z,1011.45
2018-09-09T05:08:15.318Z,1011.44
2018-09-09T05:09:15.305Z,1011.47
2018-09-09T05:10:15.292Z,1011.46
2018-09-09T05:11:15.277Z,1011.45
2018-09-09T05:12:15.265Z,1011.46
2018-09-09T05:13:15.255Z,1011.43
2018-09-09T05:14:15.236Z,1011.43
2018-09-09T05:15:15.224Z,1011.44
2018-09-09T05:16:15.213Z,1011.44
2018-09-09T05:17:15.200Z,1011.47
2018-09-09T05:18:15.183Z,1011.46
2018-09-09T05:19:15.173Z,1011.47
2018-09-09T05:20:15.156Z,1011.51
2018-09-09T05:21:15.144Z,1011.53
2018-09-09T05:22:15.128Z,1011.54
2018-09-09T05:23:15.119Z,1011.58
2018-09-09T05:24:15.103Z,1011.61
2018-09-09T05:25:15.090Z,1011.65
2018-09-09T05:26:15.076Z,1011.62
2018-09-09T05:27:15.061Z,1011.66
2018-09-09T05:28:15.050Z,1011.73
2018-09-09T05:29:15.035Z,1011.7
2018-09-09T05:30:15.024Z,1011.68
2018-09-09T05:31:15.009Z,1011.75
2018-09-09T05:32:14.994Z,1011.7
2018-09-09T05:33:14.981Z,1011.66
2018-09-09T05:34:14.966Z,1011.69
2018-09-09T05:35:14.954Z,1011.67
2018-09-09T05:36:14.941Z,1011.69
2018-09-09T05:37:14.932Z,1011.64
2018-09-09T05:38:14.917Z,1011.62
2018-09-09T05:39:14.901Z,1011.64
2018-09-09T05:40:14.895Z,1011.65
2018-09-09T05:41:14.876Z,1011.68
2018-09-09T05:42:14.877Z,1011.68
2018-09-09T05:43:14.847Z,1011.71
2018-09-09T05:44:14.835Z,1011.74
2018-09-09T05:45:14.819Z,1011.7
2018-09-09T05:46:14.806Z,1011.71
2018-09-09T05:47:14.792Z,1011.73
2018-09-09T05:48:14.780Z,1011.73
2018-09-09T05:49:14.765Z,1011.71
2018-09-09T05:50:14.765Z,1011.71
2018-09-09T05:51:14.738Z,1011.72
2018-09-09T05:52:14.733Z,1011.72
2018-09-09T05:53:14.712Z,1011.72
2018-09-09T05:54:14.700Z,1011.71
2018-09-09T05:55:14.688Z,1011.73
2018-09-09T05:56:14.673Z,1011.78
2018-09-09T05:57:14.662Z,1011.75
2018-09-09T05:58:14.648Z,1011.73
2018-09-09T05:59:14.631Z,1011.75
2018-09-09T06:00:14.620Z,1011.75
2018-09-09T06:01:14.608Z,1011.78
2018-09-09T06:02:14.594Z,1011.79
2018-09-09T06:03:14.581Z,1011.83
2018-09-09T06:04:14.569Z,1011.77
2018-09-09T06:05:14.561Z,1011.83
2018-09-09T06:06:14.547Z,1011.79
2018-09-09T06:07:14.538Z,1011.84
2018-09-09T06:08:14.518Z,1011.86
2018-09-09T06:09:14.517Z,1011.82
2018-09-09T06:10:14.491Z,1011.82
2018-09-09T06:11:14.479Z,1011.85
2018-09-09T06:12:14.463Z,1011.86
2018-09-09T06:13:14.452Z,1011.85
2018-09-09T06:14:14.438Z,1011.87
2018-09-09T06:15:14.427Z,1011.88
2018-09-09T06:16:14.413Z,1011.91
2018-09-09T06:17:14.399Z,1011.91
2018-09-09T06:18:14.389Z,1011.92
2018-09-09T06:19:14.375Z,1011.94
2018-09-09T06:20:14.360Z,1011.94
2018-09-09T06:21:14.350Z,1012
2018-09-09T06:22:14.339Z,1012.03
2018-09-09T06:23:14.327Z,1012.06
2018-09-09T06:24:14.313Z,1012.03
2018-09-09T06:25:14.301Z,1012.05
2018-09-09T06:26:14.285Z,1012.08
2018-09-09T06:27:14.281Z,1012.07
2018-09-09T06:28:14.269Z,1012.08
2018-09-09T06:29:14.247Z,1012.07
2018-09-09T06:30:14.237Z,1012.07
2018-09-09T06:31:14.227Z,1012.12
2018-09-09T06:32:14.208Z,1012.07
2018-09-09T06:33:14.196Z,1012.09
2018-09-09T06:34:14.183Z,1012.11
2018-09-09T06:35:14.171Z,1012.13
2018-09-09T06:36:14.162Z,1012.12
2018-09-09T06:37:14.148Z,1012.13
2018-09-09T06:38:14.143Z,1012.16
2018-09-09T06:39:14.121Z,1012.15
2018-09-09T06:40:14.111Z,1012.12
2018-09-09T06:41:14.099Z,1012.13
2018-09-09T06:42:14.082Z,1012.11
2018-09-09T06:43:14.073Z,1012.09
2018-09-09T06:44:14.062Z,1012.07
2018-09-09T06:45:14.050Z,1012.07
2018-09-09T06:46:14.040Z,1012.07
2018-09-09T06:47:14.021Z,1012.1
2018-09-09T06:48:14.008Z,1012.13
2018-09-09T06:49:13.997Z,1012.11
2018-09-09T06:50:13.985Z,1012.1
2018-09-09T06:51:13.973Z,1012.14
2018-09-09T06:52:13.958Z,1012.11
2018-09-09T06:53:13.946Z,1012.09
2018-09-09T06:54:13.934Z,1012.11
2018-09-09T06:55:13.945Z,1012.1
2018-09-09T06:56:13.909Z,1012.07
2018-09-09T06:57:13.902Z,1012.13
2018-09-09T06:58:13.885Z,1012.06
2018-09-09T06:59:13.872Z,1012.09
2018-09-09T07:00:13.861Z,1012.09
2018-09-09T07:01:13.846Z,1012.1
2018-09-09T07:02:13.898Z,1012.11
2018-09-09T07:03:13.823Z,1012.1
2018-09-09T07:04:13.810Z,1012.13
2018-09-09T07:05:13.803Z,1012.08
2018-09-09T07:06:13.787Z,1012.1
2018-09-09T07:07:13.775Z,1012.11
2018-09-09T07:08:13.765Z,1012.08
2018-09-09T07:09:13.753Z,1012.08
2018-09-09T07:10:13.742Z,1012.08
2018-09-09T07:11:13.782Z,1012.14
2018-09-09T07:12:13.724Z,1012.12
2018-09-09T07:13:13.705Z,1012.12
2018-09-09T07:14:13.691Z,1012.15
2018-09-09T07:15:13.679Z,1012.15
2018-09-09T07:16:13.667Z,1012.18
2018-09-09T07:17:13.925Z,1012.2
2018-09-09T07:18:13.645Z,1012.2
2018-09-09T07:19:13.764Z,1012.22
2018-09-09T07:20:13.620Z,1012.24
2018-09-09T07:21:13.614Z,1012.23
2018-09-09T07:22:13.597Z,1012.24
2018-09-09T07:23:13.586Z,1012.24
2018-09-09T07:24:13.574Z,1012.27
2018-09-09T07:25:13.567Z,1012.25
2018-09-09T07:26:13.549Z,1012.25
2018-09-09T07:27:13.548Z,1012.22
2018-09-09T07:28:13.529Z,1012.24
2018-09-09T07:29:13.524Z,1012.21
2018-09-09T07:30:13.510Z,1012.22
2018-09-09T07:31:13.504Z,1012.2
2018-09-09T07:32:13.482Z,1012.22
2018-09-09T07:33:13.485Z,1012.22
2018-09-09T07:34:13.519Z,1012.22
2018-09-09T07:35:13.448Z,1012.21
2018-09-09T07:36:13.439Z,1012.29
2018-09-09T07:37:13.430Z,1012.3
2018-09-09T07:38:13.421Z,1012.32
2018-09-09T07:39:13.408Z,1012.34
2018-09-09T07:40:13.393Z,1012.32
2018-09-09T07:41:13.387Z,1012.34
2018-09-09T07:42:13.371Z,1012.33
2018-09-09T07:43:13.366Z,1012.34
2018-09-09T07:44:13.349Z,1012.36
2018-09-09T07:45:13.339Z,1012.33
2018-09-09T07:46:13.346Z,1012.37
2018-09-09T07:47:13.331Z,1012.35
2018-09-09T07:48:13.306Z,1012.36
2018-09-09T07:49:13.296Z,1012.47
2018-09-09T07:50:13.287Z,1012.48
2018-09-09T07:51:13.276Z,1012.48
2018-09-09T07:52:13.266Z,1012.51
2018-09-09T07:53:13.253Z,1012.57
2018-09-09T07:54:13.243Z,1012.55
2018-09-09T07:55:13.228Z,1012.58
2018-09-09T07:56:13.220Z,1012.54
2018-09-09T07:57:13.206Z,1012.55
2018-09-09T07:58:13.198Z,1012.56
2018-09-09T07:59:13.194Z,1012.53
2018-09-09T08:00:13.176Z,1012.53
2018-09-09T08:01:13.165Z,1012.49
2018-09-09T08:02:13.154Z,1012.47
2018-09-09T08:03:13.147Z,1012.43
2018-09-09T08:04:13.144Z,1012.45
2018-09-09T08:05:13.123Z,1012.48
2018-09-09T08:06:13.110Z,1012.44
2018-09-09T08:07:13.102Z,1012.48
2018-09-09T08:08:13.091Z,1012.45
2018-09-09T08:09:13.079Z,1012.47
2018-09-09T08:10:13.069Z,1012.47
2018-09-09T08:11:13.057Z,1012.46
2018-09-09T08:12:13.124Z,1012.47
2018-09-09T08:13:13.036Z,1012.51
2018-09-09T08:14:13.029Z,1012.5
2018-09-09T08:15:13.016Z,1012.49
2018-09-09T08:16:13.005Z,1012.45
2018-09-09T08:17:12.999Z,1012.49
2018-09-09T08:18:12.992Z,1012.52
2018-09-09T08:19:12.976Z,1012.55
2018-09-09T08:20:12.967Z,1012.53
2018-09-09T08:21:12.958Z,1012.5
2018-09-09T08:22:12.942Z,1012.54
2018-09-09T08:23:12.940Z,1012.5
2018-09-09T08:24:12.923Z,1012.48
2018-09-09T08:25:12.915Z,1012.52
2018-09-09T08:26:12.908Z,1012.55
2018-09-09T08:27:12.891Z,1012.61
2018-09-09T08:28:12.887Z,1012.68
2018-09-09T08:29:12.872Z,1012.68
2018-09-09T08:30:12.862Z,1012.67
2018-09-09T08:31:13.056Z,1012.61
2018-09-09T08:32:12.842Z,1012.58
2018-09-09T08:33:12.839Z,1012.56
2018-09-09T08:34:12.821Z,1012.53
2018-09-09T08:35:12.809Z,1012.43
2018-09-09T08:36:12.803Z,1012.52
2018-09-09T08:37:12.787Z,1012.51
2018-09-09T08:38:12.784Z,1012.51
2018-09-09T08:39:12.768Z,1012.57
2018-09-09T08:40:12.759Z,1012.57
2018-09-09T08:41:12.775Z,1012.58
2018-09-09T08:42:12.738Z,1012.56
2018-09-09T08:43:12.727Z,1012.53
2018-09-09T08:44:12.717Z,1012.51
2018-09-09T08:45:12.710Z,1012.61
2018-09-09T08:46:12.699Z,1012.56
2018-09-09T08:47:12.687Z,1012.58
2018-09-09T08:48:12.680Z,1012.63
2018-09-09T08:49:12.666Z,1012.65
2018-09-09T08:50:12.655Z,1012.62
2018-09-09T08:51:12.646Z,1012.64
2018-09-09T08:52:12.683Z,1012.58
2018-09-09T08:53:12.627Z,1012.58
2018-09-09T08:54:12.615Z,1012.53
2018-09-09T08:55:12.609Z,1012.5
2018-09-09T08:56:12.596Z,1012.5
2018-09-09T08:57:12.585Z,1012.5
2018-09-09T08:58:12.574Z,1012.48
2018-09-09T08:59:12.567Z,1012.53
2018-09-09T09:00:12.557Z,1012.48
2018-09-09T09:01:12.547Z,1012.46
2018-09-09T09:02:12.541Z,1012.51
2018-09-09T09:03:12.525Z,1012.51
2018-09-09T09:04:12.517Z,1012.53
2018-09-09T09:05:12.505Z,1012.54
2018-09-09T09:06:12.500Z,1012.54
2018-09-09T09:07:12.488Z,1012.57
2018-09-09T09:08:12.573Z,1012.56
2018-09-09T09:09:12.466Z,1012.54
2018-09-09T09:10:12.461Z,1012.59
2018-09-09T09:11:12.449Z,1012.58
2018-09-09T09:12:12.438Z,1012.61
2018-09-09T09:13:12.430Z,1012.63
2018-09-09T09:14:12.421Z,1012.65
2018-09-09T09:15:12.411Z,1012.68
2018-09-09T09:16:12.405Z,1012.7
2018-09-09T09:17:12.393Z,1012.67
2018-09-09T09:18:12.384Z,1012.71
2018-09-09T09:19:12.373Z,1012.66
2018-09-09T09:20:12.362Z,1012.69
2018-09-09T09:21:12.353Z,1012.62
2018-09-09T09:22:12.347Z,1012.61
2018-09-09T09:23:12.334Z,1012.57
2018-09-09T09:24:12.324Z,1012.55
2018-09-09T09:25:12.316Z,1012.57
2018-09-09T09:26:12.308Z,1012.53
2018-09-09T09:27:12.298Z,1012.54
2018-09-09T09:28:12.289Z,1012.51
2018-09-09T09:29:12.278Z,1012.5
2018-09-09T09:30:12.268Z,1012.52
2018-09-09T09:31:12.259Z,1012.48
2018-09-09T09:32:12.250Z,1012.46
2018-09-09T09:33:12.274Z,1012.45
2018-09-09T09:34:12.230Z,1012.41
2018-09-09T09:35:12.224Z,1012.38
2018-09-09T09:36:12.215Z,1012.37
2018-09-09T09:37:12.207Z,1012.33
2018-09-09T09:38:12.207Z,1012.32
2018-09-09T09:39:12.202Z,1012.34
2018-09-09T09:40:12.176Z,1012.39
2018-09-09T09:41:12.168Z,1012.41
2018-09-09T09:42:12.153Z,1012.44
2018-09-09T09:43:12.145Z,1012.44
2018-09-09T09:44:12.143Z,1012.41
2018-09-09T09:45:12.125Z,1012.41
2018-09-09T09:46:12.117Z,1012.45
2018-09-09T09:47:12.111Z,1012.43
2018-09-09T09:48:12.101Z,1012.45
2018-09-09T09:49:12.090Z,1012.41
2018-09-09T09:50:12.082Z,1012.41
2018-09-09T09:51:12.068Z,1012.42
2018-09-09T09:52:12.061Z,1012.43
2018-09-09T09:53:12.068Z,1012.48
2018-09-09T09:54:12.038Z,1012.5
2018-09-09T09:55:12.127Z,1012.51
2018-09-09T09:56:12.022Z,1012.48
2018-09-09T09:57:12.011Z,1012.5
2018-09-09T09:58:12.004Z,1012.48
2018-09-09T09:59:11.992Z,1012.5
2018-09-09T10:00:11.984Z,1012.54
2018-09-09T10:01:11.982Z,1012.55
2018-09-09T10:02:11.967Z,1012.53
2018-09-09T10:03:11.960Z,1012.59
2018-09-09T10:04:11.947Z,1012.56
2018-09-09T10:05:11.938Z,1012.51
2018-09-09T10:06:11.929Z,1012.55
2018-09-09T10:07:11.921Z,1012.49
2018-09-09T10:08:11.911Z,1012.5
2018-09-09T10:09:12.043Z,1012.58
2018-09-09T10:10:11.896Z,1012.58
2018-09-09T10:11:11.892Z,1012.54
2018-09-09T10:12:11.881Z,1012.56
2018-09-09T10:13:12.080Z,1012.56
2018-09-09T10:14:11.865Z,1012.51
2018-09-09T10:15:11.875Z,1012.55
2018-09-09T10:16:11.846Z,1012.56
2018-09-09T10:17:11.836Z,1012.59
2018-09-09T10:18:11.829Z,1012.63
2018-09-09T10:19:11.827Z,1012.61
2018-09-09T10:20:11.818Z,1012.63
2018-09-09T10:21:11.803Z,1012.6
2018-09-09T10:22:11.796Z,1012.62
2018-09-09T10:23:11.792Z,1012.64
2018-09-09T10:24:11.783Z,1012.62
2018-09-09T10:25:11.772Z,1012.64
2018-09-09T10:26:11.766Z,1012.67
2018-09-09T10:27:11.756Z,1012.63
2018-09-09T10:28:11.748Z,1012.65
2018-09-09T10:29:11.739Z,1012.66
2018-09-09T10:30:11.816Z,1012.69
2018-09-09T10:31:11.929Z,1012.71
2018-09-09T10:32:11.721Z,1012.62
2018-09-09T10:33:11.709Z,1012.61
2018-09-09T10:34:11.706Z,1012.57
2018-09-09T10:35:11.696Z,1012.59
2018-09-09T10:36:11.687Z,1012.57
2018-09-09T10:37:11.681Z,1012.61
2018-09-09T10:38:11.673Z,1012.6
2018-09-09T10:39:11.666Z,1012.64
2018-09-09T10:40:11.657Z,1012.62
2018-09-09T10:41:11.649Z,1012.65
2018-09-09T10:42:11.642Z,1012.7
2018-09-09T10:43:11.633Z,1012.65
2018-09-09T10:44:11.629Z,1012.71
2018-09-09T10:45:11.622Z,1012.69
2018-09-09T10:46:11.736Z,1012.76
2018-09-09T10:47:11.620Z,1012.77
2018-09-09T10:48:11.598Z,1012.71
2018-09-09T10:49:11.591Z,1012.76
2018-09-09T10:50:11.583Z,1012.76
2018-09-09T10:51:11.578Z,1012.75
2018-09-09T10:52:11.568Z,1012.78
2018-09-09T10:53:11.639Z,1012.74
2018-09-09T10:54:11.554Z,1012.7
2018-09-09T10:55:11.556Z,1012.74
2018-09-09T10:56:11.542Z,1012.78
2018-09-09T10:57:11.534Z,1012.73
2018-09-09T10:58:11.528Z,1012.77
2018-09-09T10:59:11.521Z,1012.76
2018-09-09T11:00:11.515Z,1012.76
2018-09-09T11:01:11.506Z,1012.72
2018-09-09T11:02:11.498Z,1012.76
2018-09-09T11:03:11.500Z,1012.81
2018-09-09T11:04:11.487Z,1012.75
2018-09-09T11:05:11.483Z,1012.83
2018-09-09T11:06:11.474Z,1012.82
2018-09-09T11:07:11.477Z,1012.73
2018-09-09T11:08:11.461Z,1012.71
2018-09-09T11:09:11.454Z,1012.71
2018-09-09T11:10:11.446Z,1012.75
2018-09-09T11:11:11.441Z,1012.74
2018-09-09T11:12:11.433Z,1012.74
2018-09-09T11:13:11.436Z,1012.7
2018-09-09T11:14:11.420Z,1012.74
2018-09-09T11:15:11.413Z,1012.82
2018-09-09T11:16:11.409Z,1012.8
2018-09-09T11:17:11.402Z,1012.74
2018-09-09T11:18:11.396Z,1012.78
2018-09-09T11:19:11.391Z,1012.78
2018-09-09T11:20:11.382Z,1012.79
2018-09-09T11:21:11.377Z,1012.85
2018-09-09T11:22:11.379Z,1012.88
2018-09-09T11:23:11.365Z,1012.93
2018-09-09T11:24:11.446Z,1012.93
2018-09-09T11:25:11.356Z,1012.91
2018-09-09T11:26:11.347Z,1012.9
2018-09-09T11:27:11.340Z,1012.95
2018-09-09T11:28:11.335Z,1012.9
2018-09-09T11:29:11.336Z,1012.86
2018-09-09T11:30:11.324Z,1012.9
2018-09-09T11:31:11.317Z,1012.98
2018-09-09T11:32:11.312Z,1012.96
2018-09-09T11:33:11.306Z,1012.88
2018-09-09T11:34:11.300Z,1012.86
2018-09-09T11:35:11.297Z,1012.83
2018-09-09T11:36:11.337Z,1012.95
2018-09-09T11:37:11.291Z,1012.89
2018-09-09T11:38:11.282Z,1012.88
2018-09-09T11:39:11.286Z,1012.87
2018-09-09T11:40:11.275Z,1012.83
2018-09-09T11:41:11.273Z,1012.89
2018-09-09T11:42:11.267Z,1012.78
2018-09-09T11:43:11.268Z,1012.89
2018-09-09T11:44:11.267Z,1012.88
2018-09-09T11:45:11.260Z,1012.8
2018-09-09T11:46:11.259Z,1012.74
2018-09-09T11:47:11.256Z,1012.73
2018-09-09T11:48:11.256Z,1012.73
2018-09-09T11:49:11.256Z,1012.75
2018-09-09T11:50:11.261Z,1012.71
2018-09-09T11:51:11.256Z,1012.69
2018-09-09T11:52:11.257Z,1012.71
2018-09-09T11:53:11.290Z,1012.66
2018-09-09T11:54:11.260Z,1012.71
2018-09-09T11:55:11.262Z,1012.76
2018-09-09T11:56:11.261Z,1012.73
2018-09-09T11:57:11.264Z,1012.82
2018-09-09T11:58:11.266Z,1012.85
2018-09-09T11:59:11.273Z,1012.87
2018-09-09T12:00:11.270Z,1012.81
2018-09-09T12:01:11.271Z,1012.78
2018-09-09T12:02:11.277Z,1012.76
2018-09-09T12:03:11.279Z,1012.7
2018-09-09T12:04:11.277Z,1012.74
2018-09-09T12:05:11.281Z,1012.72
2018-09-09T12:06:11.288Z,1012.72
2018-09-09T12:07:11.289Z,1012.68
2018-09-09T12:08:11.289Z,1012.72